Time;durP1;ratioP1;P1;durP2;ratioP2;P2;SDS_P1;SDS_P2;PMS_P1;PMS_P2;Temp;Humidity;BMP_temperature;BMP_pressure;BME280_temperature;BME280_humidity;BME280_pressure;Samples;Min_cycle;Max_cycle;Signal;HPM_P1;HPM_P2
2024/02/05 00:01:33;;;;;;;1.10;0.40;;;;;;;;;;6128508;28;20055;-79
2024/02/05 00:04:35;;;;;;;0.30;0.22;;;;;;;;;;6122030;28;20508;-78
2024/02/05 00:07:37;;;;;;;0.20;0.20;;;;;;;;;;6133673;28;20051;-79
2024/02/05 00:10:40;;;;;;;0.32;0.28;;;;;;;;;;6138683;28;20051;-78
2024/02/05 00:13:41;;;;;;;0.28;0.22;;;;;;;;;;6138848;28;20543;-78
2024/02/05 00:16:44;;;;;;;0.40;0.38;;;;;;;;;;6130059;28;20299;-78
2024/02/05 00:19:46;;;;;;;0.40;0.38;;;;;;;;;;6133270;28;20150;-79
2024/02/05 00:22:48;;;;;;;0.50;0.30;;;;;;;;;;6137885;28;20517;-78
2024/02/05 00:25:50;;;;;;;0.40;0.30;;;;;;;;;;6152072;28;20435;-79
2024/02/05 00:28:52;;;;;;;1.60;0.50;;;;;;;;;;6156144;28;20301;-79
2024/02/05 00:31:54;;;;;;;4.28;0.70;;;;;;;;;;6133626;28;20134;-79
2024/02/05 00:34:57;;;;;;;1.27;0.50;;;;;;;;;;6127946;28;20043;-77
2024/02/05 00:37:59;;;;;;;1.10;0.80;;;;;;;;;;6135707;28;20603;-80
2024/02/05 00:41:00;;;;;;;2.17;0.63;;;;;;;;;;6132714;28;20047;-79
2024/02/05 00:44:02;;;;;;;0.98;0.75;;;;;;;;;;6138373;28;20050;-79
2024/02/05 00:47:03;;;;;;;0.75;0.70;;;;;;;;;;6133374;28;20073;-79
2024/02/05 00:50:06;;;;;;;1.17;0.80;;;;;;;;;;6134687;28;20126;-78
2024/02/05 00:53:07;;;;;;;1.20;1.00;;;;;;;;;;6148725;28;20051;-79
2024/02/05 00:56:09;;;;;;;2.60;0.77;;;;;;;;;;6131901;28;20043;-79
2024/02/05 00:59:11;;;;;;;2.22;0.88;;;;;;;;;;6153520;28;20630;-78
2024/02/05 01:02:13;;;;;;;3.38;1.05;;;;;;;;;;6135642;28;20047;-78
2024/02/05 01:05:14;;;;;;;2.53;0.90;;;;;;;;;;6125578;28;20055;-79
2024/02/05 01:08:17;;;;;;;2.30;0.90;;;;;;;;;;6138969;28;20051;-80
2024/02/05 01:11:19;;;;;;;4.32;1.10;;;;;;;;;;6149433;28;20551;-79
2024/02/05 01:14:21;;;;;;;4.40;1.20;;;;;;;;;;6133786;28;20059;-79
2024/02/05 01:17:23;;;;;;;2.13;1.00;;;;;;;;;;6132814;28;20132;-78
2024/02/05 01:20:25;;;;;;;2.42;1.77;;;;;;;;;;6117186;28;20386;-78
2024/02/05 01:23:26;;;;;;;3.42;1.40;;;;;;;;;;6130593;28;20525;-78
2024/02/05 01:26:28;;;;;;;1.80;1.23;;;;;;;;;;6131501;28;20043;-78
2024/02/05 01:29:30;;;;;;;4.60;1.60;;;;;;;;;;6123716;28;20557;-78
2024/02/05 01:32:31;;;;;;;5.55;1.40;;;;;;;;;;6136181;28;20070;-79
2024/02/05 01:35:33;;;;;;;6.53;1.73;;;;;;;;;;6134209;28;20149;-78
2024/02/05 01:38:35;;;;;;;5.03;1.90;;;;;;;;;;6130671;28;20089;-78
2024/02/05 01:41:36;;;;;;;4.78;1.65;;;;;;;;;;6131746;28;21372;-78
2024/02/05 01:44:38;;;;;;;8.20;1.90;;;;;;;;;;6133275;28;20075;-78
2024/02/05 01:47:41;;;;;;;4.78;1.80;;;;;;;;;;6132598;28;20095;-78
2024/02/05 01:50:43;;;;;;;7.45;1.55;;;;;;;;;;6135559;28;20047;-78
2024/02/05 01:53:44;;;;;;;5.80;1.80;;;;;;;;;;6127643;28;20046;-78
2024/02/05 01:56:47;;;;;;;4.63;1.95;;;;;;;;;;6129900;28;20046;-78
2024/02/05 01:59:49;;;;;;;5.45;1.55;;;;;;;;;;6151355;28;20354;-78
2024/02/05 02:02:51;;;;;;;3.53;2.10;;;;;;;;;;6134511;28;20074;-80
2024/02/05 02:05:55;;;;;;;5.05;1.90;;;;;;;;;;6132407;28;20087;-78
2024/02/05 02:08:57;;;;;;;;;;;;;;;;;;6148323;28;20051;-78
2024/02/05 02:11:58;;;;;;;9.88;2.10;;;;;;;;;;6115427;28;20384;-78
2024/02/05 02:15:00;;;;;;;7.00;2.10;;;;;;;;;;6139385;28;20055;-79
2024/02/05 02:18:07;;;;;;;8.50;2.30;;;;;;;;;;6151794;28;20046;-79
2024/02/05 02:21:12;;;;;;;11.15;2.47;;;;;;;;;;6138659;28;20126;-79
2024/02/05 02:24:14;;;;;;;7.40;2.30;;;;;;;;;;6133750;28;20522;-79
2024/02/05 02:27:16;;;;;;;7.03;2.53;;;;;;;;;;6138693;28;20051;-79
2024/02/05 02:30:19;;;;;;;7.05;2.20;;;;;;;;;;6132605;28;21529;-78
2024/02/05 02:33:39;;;;;;;;;;;;;;;;;;6132339;28;20062;-79
2024/02/05 02:36:52;;;;;;;10.43;2.63;;;;;;;;;;6129673;28;19922;-78
2024/02/05 02:40:05;;;;;;;10.70;2.38;;;;;;;;;;6122385;28;20058;-79
2024/02/05 02:43:08;;;;;;;10.73;3.42;;;;;;;;;;6131931;28;20050;-78
2024/02/05 02:46:10;;;;;;;;;;;;;;;;;;6128337;28;20429;-79
2024/02/05 02:49:12;;;;;;;8.40;2.47;;;;;;;;;;6128759;28;19926;-78
2024/02/05 02:52:14;;;;;;;12.98;3.10;;;;;;;;;;6132726;28;20050;-78
2024/02/05 02:55:15;;;;;;;8.57;2.83;;;;;;;;;;6135052;28;20094;-78
2024/02/05 02:58:17;;;;;;;13.27;2.83;;;;;;;;;;6139331;28;20186;-78
2024/02/05 03:01:19;;;;;;;9.25;2.85;;;;;;;;;;6152107;28;20051;-78
2024/02/05 03:04:21;;;;;;;11.65;2.50;;;;;;;;;;6133625;28;20047;-78
2024/02/05 03:07:23;;;;;;;10.65;2.88;;;;;;;;;;6150629;28;20395;-79
2024/02/05 03:10:25;;;;;;;7.50;2.50;;;;;;;;;;6149428;28;20039;-78
2024/02/05 03:13:26;;;;;;;8.48;2.70;;;;;;;;;;6131407;28;20182;-78
2024/02/05 03:16:28;;;;;;;13.00;3.05;;;;;;;;;;6127996;28;20054;-78
2024/02/05 03:19:30;;;;;;;10.30;2.90;;;;;;;;;;6128585;28;20047;-80
2024/02/05 03:22:32;;;;;;;12.35;2.92;;;;;;;;;;6135818;28;20057;-78
2024/02/05 03:25:34;;;;;;;13.27;3.25;;;;;;;;;;6134942;28;20425;-79
2024/02/05 03:28:36;;;;;;;13.85;3.17;;;;;;;;;;6133727;28;20055;-79
2024/02/05 03:31:42;;;;;;;9.73;3.67;;;;;;;;;;6151711;28;20055;-79
2024/02/05 03:34:44;;;;;;;10.68;2.72;;;;;;;;;;6135255;28;20103;-78
2024/02/05 03:37:46;;;;;;;10.95;2.90;;;;;;;;;;6133742;28;20039;-79
2024/02/05 03:40:47;;;;;;;13.52;3.10;;;;;;;;;;6135753;28;20109;-78
2024/02/05 03:43:50;;;;;;;10.90;2.70;;;;;;;;;;6130445;28;20581;-79
2024/02/05 03:46:51;;;;;;;9.60;2.50;;;;;;;;;;6129720;28;20054;-78
2024/02/05 03:49:53;;;;;;;13.82;2.78;;;;;;;;;;6134693;28;20058;-79
2024/02/05 03:52:55;;;;;;;9.82;2.40;;;;;;;;;;6136336;28;20142;-78
2024/02/05 03:55:56;;;;;;;11.60;3.53;;;;;;;;;;6129446;28;20048;-79
2024/02/05 03:58:58;;;;;;;11.88;2.53;;;;;;;;;;6114528;28;20060;-78
2024/02/05 04:02:02;;;;;;;9.57;2.75;;;;;;;;;;6120765;28;20459;-78
2024/02/05 04:05:07;;;;;;;13.20;2.63;;;;;;;;;;6141091;28;20047;-79
2024/02/05 04:08:08;;;;;;;15.60;3.20;;;;;;;;;;6153380;28;20090;-78
2024/02/05 04:11:10;;;;;;;13.98;2.95;;;;;;;;;;6136656;28;20102;-78
2024/02/05 04:14:12;;;;;;;9.57;2.85;;;;;;;;;;6138282;28;20074;-79
2024/02/05 04:17:13;;;;;;;16.10;3.35;;;;;;;;;;6138622;28;20043;-79
2024/02/05 04:20:15;;;;;;;12.85;2.92;;;;;;;;;;6138214;28;20137;-78
2024/02/05 04:23:17;;;;;;;12.52;3.30;;;;;;;;;;6130163;28;20043;-78
2024/02/05 04:26:18;;;;;;;10.18;2.60;;;;;;;;;;6143561;28;20066;-78
2024/02/05 04:29:20;;;;;;;13.60;3.42;;;;;;;;;;6142836;28;20055;-79
2024/02/05 04:32:23;;;;;;;10.70;3.55;;;;;;;;;;6131495;28;20441;-78
2024/02/05 04:35:25;;;;;;;10.35;3.10;;;;;;;;;;6139192;28;20807;-78
2024/02/05 04:38:27;;;;;;;12.75;3.00;;;;;;;;;;6135756;28;20110;-78
2024/02/05 04:41:29;;;;;;;13.65;3.28;;;;;;;;;;6134840;28;20047;-78
2024/02/05 04:44:30;;;;;;;13.43;3.55;;;;;;;;;;6137096;28;20088;-78
2024/02/05 04:47:32;;;;;;;7.22;2.70;;;;;;;;;;6135577;28;20500;-78
2024/02/05 04:50:34;;;;;;;9.30;2.78;;;;;;;;;;6136524;28;20081;-79
2024/02/05 04:53:35;;;;;;;12.48;2.85;;;;;;;;;;6135300;28;20443;-79
2024/02/05 04:56:37;;;;;;;16.95;3.25;;;;;;;;;;6128112;28;20055;-78
2024/02/05 04:59:39;;;;;;;11.57;2.63;;;;;;;;;;6141013;28;20055;-79
2024/02/05 05:02:40;;;;;;;14.60;3.33;;;;;;;;;;6111697;28;20054;-78
2024/02/05 05:05:42;;;;;;;10.75;3.33;;;;;;;;;;6122044;28;20047;-78
2024/02/05 05:08:44;;;;;;;10.52;3.00;;;;;;;;;;6137816;28;20039;-78
2024/02/05 05:11:45;;;;;;;10.40;2.63;;;;;;;;;;6134127;28;20043;-79
2024/02/05 05:14:47;;;;;;;11.30;2.47;;;;;;;;;;6135207;28;20129;-78
2024/02/05 05:17:48;;;;;;;26.85;4.00;;;;;;;;;;6129497;28;20043;-78
2024/02/05 05:20:50;;;;;;;15.25;2.65;;;;;;;;;;6133051;28;20053;-78
2024/02/05 05:23:52;;;;;;;9.73;1.92;;;;;;;;;;6130333;28;20055;-77
2024/02/05 05:26:54;;;;;;;12.00;2.17;;;;;;;;;;6145387;28;20054;-79
2024/02/05 05:29:55;;;;;;;5.85;2.20;;;;;;;;;;6136969;28;20054;-79
2024/02/05 05:32:57;;;;;;;8.65;2.95;;;;;;;;;;6151668;28;20533;-79
2024/02/05 05:35:59;;;;;;;10.85;2.42;;;;;;;;;;6137202;28;20046;-80
2024/02/05 05:39:00;;;;;;;11.60;2.47;;;;;;;;;;6137541;28;20111;-79
2024/02/05 05:42:02;;;;;;;9.15;2.80;;;;;;;;;;6115037;28;20744;-79
2024/02/05 05:45:06;;;;;;;13.10;2.90;;;;;;;;;;6136356;28;20524;-78
2024/02/05 05:48:08;;;;;;;10.95;2.85;;;;;;;;;;6128026;28;20054;-78
2024/02/05 05:51:10;;;;;;;7.63;2.45;;;;;;;;;;6134931;28;20449;-78
2024/02/05 05:54:12;;;;;;;13.32;3.17;;;;;;;;;;6149829;28;20536;-79
2024/02/05 05:57:14;;;;;;;7.65;2.45;;;;;;;;;;6133618;28;20051;-78
2024/02/05 06:00:16;;;;;;;14.55;2.65;;;;;;;;;;6135778;28;20050;-78
2024/02/05 06:03:18;;;;;;;9.27;2.75;;;;;;;;;;6136322;28;20502;-78
2024/02/05 06:06:20;;;;;;;15.27;3.75;;;;;;;;;;6133456;28;20051;-78
2024/02/05 06:09:22;;;;;;;11.02;2.90;;;;;;;;;;6134664;28;20378;-78
2024/02/05 06:12:24;;;;;;;10.35;2.80;;;;;;;;;;6133917;28;20054;-78
2024/02/05 06:15:25;;;;;;;14.05;2.75;;;;;;;;;;6131810;28;20075;-78
2024/02/05 06:18:27;;;;;;;12.70;2.70;;;;;;;;;;6145652;28;20051;-78
2024/02/05 06:21:29;;;;;;;9.43;3.30;;;;;;;;;;6117124;28;20044;-78
2024/02/05 06:24:32;;;;;;;12.45;3.30;;;;;;;;;;6136320;28;20107;-79
2024/02/05 06:27:33;;;;;;;11.70;3.47;;;;;;;;;;6132833;28;20051;-78
2024/02/05 06:30:37;;;;;;;12.18;2.95;;;;;;;;;;6130035;28;20601;-78
2024/02/05 06:33:39;;;;;;;15.38;3.10;;;;;;;;;;6136318;28;20545;-78
2024/02/05 06:36:41;;;;;;;10.43;2.80;;;;;;;;;;6139353;28;20046;-78
2024/02/05 06:39:43;;;;;;;8.93;3.17;;;;;;;;;;6134527;28;20062;-78
2024/02/05 06:42:46;;;;;;;10.38;2.85;;;;;;;;;;6135514;28;20047;-79
2024/02/05 06:45:47;;;;;;;7.55;2.53;;;;;;;;;;6132710;28;20075;-79
2024/02/05 06:48:49;;;;;;;13.35;2.88;;;;;;;;;;6122710;28;20069;-79
2024/02/05 06:51:51;;;;;;;10.85;2.70;;;;;;;;;;6134102;28;20039;-79
2024/02/05 06:54:53;;;;;;;8.15;2.35;;;;;;;;;;6134280;28;20190;-80
2024/02/05 06:57:55;;;;;;;11.18;2.88;;;;;;;;;;6118127;28;20040;-79
2024/02/05 07:00:57;;;;;;;8.60;2.10;;;;;;;;;;6134068;28;20047;-79
2024/02/05 07:03:58;;;;;;;14.75;3.05;;;;;;;;;;6148272;28;20485;-79
2024/02/05 07:07:00;;;;;;;10.15;2.47;;;;;;;;;;6134265;28;20048;-80
2024/02/05 07:10:06;;;;;;;11.75;2.80;;;;;;;;;;6136794;28;20086;-79
2024/02/05 07:13:07;;;;;;;8.55;2.45;;;;;;;;;;6129655;28;20047;-80
2024/02/05 07:16:17;;;;;;;9.00;2.20;;;;;;;;;;6133622;28;20087;-80
2024/02/05 07:19:19;;;;;;;9.40;2.22;;;;;;;;;;6133104;28;20580;-80
2024/02/05 07:22:21;;;;;;;9.23;2.35;;;;;;;;;;6130035;28;20051;-80
2024/02/05 07:25:25;;;;;;;12.23;2.30;;;;;;;;;;6145188;28;20589;-79
2024/02/05 07:28:26;;;;;;;11.93;2.80;;;;;;;;;;6122873;28;20047;-80
2024/02/05 07:31:28;;;;;;;12.18;2.47;;;;;;;;;;6132515;28;20044;-79
2024/02/05 07:34:30;;;;;;;11.88;1.90;;;;;;;;;;6132626;28;20047;-80
2024/02/05 07:37:36;;;;;;;7.05;2.30;;;;;;;;;;6149324;28;20043;-79
2024/02/05 07:40:38;;;;;;;7.63;2.20;;;;;;;;;;6133494;28;20055;-80
2024/02/05 07:43:39;;;;;;;10.80;2.75;;;;;;;;;;6132888;28;20067;-79
2024/02/05 07:46:45;;;;;;;7.47;1.92;;;;;;;;;;6116524;28;20073;-79
2024/02/05 07:49:47;;;;;;;10.43;2.33;;;;;;;;;;6136052;28;20051;-80
2024/02/05 07:52:50;;;;;;;7.20;1.92;;;;;;;;;;6136371;28;20054;-80
2024/02/05 07:55:51;;;;;;;4.43;1.90;;;;;;;;;;6141288;28;20059;-79
2024/02/05 07:58:53;;;;;;;8.40;2.30;;;;;;;;;;6137952;28;20209;-80
2024/02/05 08:01:55;;;;;;;8.75;2.00;;;;;;;;;;6136816;28;20055;-79
2024/02/05 08:04:57;;;;;;;10.23;2.42;;;;;;;;;;6135262;28;20698;-81
2024/02/05 08:07:59;;;;;;;10.80;2.55;;;;;;;;;;6129208;28;20051;-78
2024/02/05 08:11:00;;;;;;;6.10;2.28;;;;;;;;;;6129213;28;20035;-79
2024/02/05 08:14:03;;;;;;;9.52;2.40;;;;;;;;;;6132250;28;20051;-78
2024/02/05 08:17:05;;;;;;;7.93;2.10;;;;;;;;;;6141958;28;20058;-79
2024/02/05 08:20:09;;;;;;;7.53;2.30;;;;;;;;;;6133635;28;20070;-79
2024/02/05 08:23:11;;;;;;;7.27;1.80;;;;;;;;;;6151453;28;20065;-80
2024/02/05 08:26:13;;;;;;;8.65;2.15;;;;;;;;;;6134938;28;20079;-80
2024/02/05 08:29:18;;;;;;;10.00;1.85;;;;;;;;;;6134432;28;20055;-80
2024/02/05 08:32:20;;;;;;;7.32;2.10;;;;;;;;;;6127238;28;20068;-81
2024/02/05 08:35:22;;;;;;;7.78;2.17;;;;;;;;;;6148394;28;20058;-80
2024/02/05 08:38:24;;;;;;;8.43;2.17;;;;;;;;;;6140713;28;20055;-80
2024/02/05 08:41:26;;;;;;;11.52;2.40;;;;;;;;;;6133603;28;20054;-78
2024/02/05 08:44:27;;;;;;;5.57;1.92;;;;;;;;;;6131620;28;20055;-79
2024/02/05 08:47:29;;;;;;;7.28;2.15;;;;;;;;;;6147730;28;20043;-79
2024/02/05 08:50:33;;;;;;;5.47;1.92;;;;;;;;;;6136858;28;20051;-78
2024/02/05 08:53:35;;;;;;;7.00;2.10;;;;;;;;;;6135232;28;20055;-80
2024/02/05 08:56:37;;;;;;;8.32;2.92;;;;;;;;;;6138092;28;20050;-81
2024/02/05 08:59:39;;;;;;;10.57;2.55;;;;;;;;;;6139837;28;20051;-80
2024/02/05 09:02:40;;;;;;;7.97;2.33;;;;;;;;;;6140145;28;20498;-80
2024/02/05 09:05:43;;;;;;;5.13;2.30;;;;;;;;;;6137317;28;20141;-80
2024/02/05 09:08:47;;;;;;;10.50;3.00;;;;;;;;;;6142563;28;20130;-80
2024/02/05 09:11:49;;;;;;;13.50;2.78;;;;;;;;;;6152157;28;20059;-80
2024/02/05 09:15:06;;;;;;;6.00;2.35;;;;;;;;;;6121739;28;20043;-79
2024/02/05 09:18:09;;;;;;;12.25;2.55;;;;;;;;;;6109815;28;20058;-81
2024/02/05 09:21:11;;;;;;;9.45;2.63;;;;;;;;;;6130609;28;20043;-81
2024/02/05 09:24:12;;;;;;;10.63;2.05;;;;;;;;;;6139124;28;20047;-81
2024/02/05 09:27:14;;;;;;;10.85;2.45;;;;;;;;;;6137066;28;20078;-80
2024/02/05 09:30:16;;;;;;;6.90;2.15;;;;;;;;;;6128502;28;20591;-80
2024/02/05 09:33:18;;;;;;;11.18;2.60;;;;;;;;;;6135758;28;20051;-80
2024/02/05 09:36:21;;;;;;;8.13;2.30;;;;;;;;;;6119377;28;20183;-81
2024/02/05 09:39:24;;;;;;;8.52;2.40;;;;;;;;;;6139377;28;20497;-81
2024/02/05 09:42:26;;;;;;;12.75;2.25;;;;;;;;;;6147385;28;20051;-81
2024/02/05 09:45:30;;;;;;;6.93;1.75;;;;;;;;;;6128066;28;20110;-80
2024/02/05 09:48:35;;;;;;;8.18;2.72;;;;;;;;;;6129227;28;20047;-80
2024/02/05 09:51:44;;;;;;;6.70;2.22;;;;;;;;;;6135293;28;20058;-80
2024/02/05 09:54:46;;;;;;;;;;;;;;;;;;6135538;28;20043;-81
2024/02/05 09:57:48;;;;;;;8.15;2.03;;;;;;;;;;6129642;28;20009;-81
2024/02/05 10:00:51;;;;;;;10.55;2.75;;;;;;;;;;6152545;28;20058;-80
2024/02/05 10:03:54;;;;;;;9.60;2.15;;;;;;;;;;6137680;28;20410;-79
2024/02/05 10:06:57;;;;;;;6.03;2.00;;;;;;;;;;6149876;28;20043;-79
2024/02/05 10:10:02;;;;;;;7.35;2.28;;;;;;;;;;6149080;28;20047;-79
2024/02/05 10:13:04;;;;;;;12.63;2.17;;;;;;;;;;6131910;28;20067;-79
2024/02/05 10:16:07;;;;;;;8.47;2.40;;;;;;;;;;6127222;28;20067;-79
2024/02/05 10:19:09;;;;;;;8.43;2.47;;;;;;;;;;6134430;28;20451;-79
2024/02/05 10:22:11;;;;;;;7.85;2.08;;;;;;;;;;6151745;28;20426;-79
2024/02/05 10:25:14;;;;;;;5.95;2.53;;;;;;;;;;6134909;28;20043;-80
2024/02/05 10:28:20;;;;;;;8.52;2.17;;;;;;;;;;6137934;28;20051;-80
2024/02/05 10:31:22;;;;;;;8.80;1.73;;;;;;;;;;6139477;28;20050;-79
2024/02/05 10:34:25;;;;;;;5.05;2.63;;;;;;;;;;6123324;28;20051;-80
2024/02/05 10:37:29;;;;;;;4.25;1.65;;;;;;;;;;6131461;28;20406;-79
2024/02/05 10:40:35;;;;;;;10.65;2.63;;;;;;;;;;6135743;28;20642;-79
2024/02/05 10:43:39;;;;;;;6.40;2.05;;;;;;;;;;6152968;28;20135;-79
2024/02/05 10:46:41;;;;;;;6.35;1.83;;;;;;;;;;6130802;28;20048;-79
2024/02/05 10:49:43;;;;;;;9.32;2.10;;;;;;;;;;6137371;28;20050;-79
2024/02/05 10:52:45;;;;;;;10.70;2.07;;;;;;;;;;6135594;28;20055;-80
2024/02/05 10:55:49;;;;;;;7.47;2.10;;;;;;;;;;6153753;28;20047;-79
2024/02/05 10:58:55;;;;;;;12.27;2.00;;;;;;;;;;6159790;28;20490;-79
2024/02/05 11:02:12;;;;;;;12.98;3.33;;;;;;;;;;6138563;28;20057;-79
2024/02/05 11:05:14;;;;;;;5.38;1.92;;;;;;;;;;6133528;28;20333;-79
2024/02/05 11:08:20;;;;;;;7.97;2.13;;;;;;;;;;6136192;28;20050;-79
2024/02/05 11:11:22;;;;;;;6.18;2.25;;;;;;;;;;6135249;28;20051;-79
2024/02/05 11:14:26;;;;;;;6.90;1.95;;;;;;;;;;6133117;28;20054;-80
2024/02/05 11:17:28;;;;;;;6.10;1.88;;;;;;;;;;6137819;28;20050;-79
2024/02/05 11:20:31;;;;;;;7.77;2.20;;;;;;;;;;6145942;28;20560;-80
2024/02/05 11:23:35;;;;;;;7.47;2.00;;;;;;;;;;6137958;28;20051;-81
2024/02/05 11:26:38;;;;;;;4.53;2.17;;;;;;;;;;6151344;28;20059;-80
2024/02/05 11:29:42;;;;;;;6.55;2.63;;;;;;;;;;6142647;28;20067;-80
2024/02/05 11:32:44;;;;;;;7.60;1.73;;;;;;;;;;6131140;28;20417;-80
2024/02/05 11:35:49;;;;;;;5.57;2.33;;;;;;;;;;6118112;28;20039;-80
2024/02/05 11:38:59;;;;;;;8.00;2.70;;;;;;;;;;6156376;28;20074;-80
2024/02/05 11:42:08;;;;;;;5.85;2.03;;;;;;;;;;6140380;28;20047;-80
2024/02/05 11:45:10;;;;;;;5.97;1.98;;;;;;;;;;6140782;28;20433;-80
2024/02/05 11:48:12;;;;;;;6.10;1.98;;;;;;;;;;6132262;28;20134;-80
2024/02/05 11:51:15;;;;;;;8.77;2.00;;;;;;;;;;6140174;28;20454;-81
2024/02/05 11:54:17;;;;;;;9.32;2.28;;;;;;;;;;6144105;28;20062;-80
2024/02/05 11:57:18;;;;;;;7.13;2.55;;;;;;;;;;6141516;28;20047;-80
2024/02/05 12:00:21;;;;;;;7.82;1.80;;;;;;;;;;6140686;28;20058;-81
2024/02/05 12:03:23;;;;;;;7.15;1.95;;;;;;;;;;6141634;28;20544;-80
2024/02/05 12:06:26;;;;;;;6.47;2.07;;;;;;;;;;6141737;28;20043;-80
2024/02/05 12:09:28;;;;;;;8.70;1.95;;;;;;;;;;6138140;28;20058;-80
2024/02/05 12:12:30;;;;;;;7.07;1.70;;;;;;;;;;6139369;28;20485;-80
2024/02/05 12:15:36;;;;;;;6.53;1.77;;;;;;;;;;6143644;28;20047;-81
2024/02/05 12:18:41;;;;;;;9.05;2.00;;;;;;;;;;6127786;28;20051;-80
2024/02/05 12:21:49;;;;;;;9.60;1.60;;;;;;;;;;6142036;28;20038;-80
2024/02/05 12:24:53;;;;;;;4.80;1.97;;;;;;;;;;6145378;28;20429;-80
2024/02/05 12:27:55;;;;;;;5.35;1.75;;;;;;;;;;6135078;28;20046;-80
2024/02/05 12:30:58;;;;;;;7.38;1.80;;;;;;;;;;6139934;28;20513;-80
2024/02/05 12:34:00;;;;;;;7.28;1.90;;;;;;;;;;6139074;28;20094;-80
2024/02/05 12:37:04;;;;;;;2.50;1.60;;;;;;;;;;6143323;28;20129;-80
2024/02/05 12:40:07;;;;;;;8.25;2.10;;;;;;;;;;6140162;28;20055;-79
2024/02/05 12:43:08;;;;;;;7.65;1.73;;;;;;;;;;6140261;28;20477;-80
2024/02/05 12:46:11;;;;;;;5.15;1.90;;;;;;;;;;6137586;28;20062;-80
2024/02/05 12:49:14;;;;;;;10.80;2.78;;;;;;;;;;6137130;28;20142;-80
2024/02/05 12:52:15;;;;;;;8.85;1.92;;;;;;;;;;6123365;28;20091;-79
2024/02/05 12:55:17;;;;;;;8.90;2.47;;;;;;;;;;6134994;28;20055;-80
2024/02/05 12:58:22;;;;;;;7.60;1.88;;;;;;;;;;6140314;28;20050;-80
2024/02/05 13:01:24;;;;;;;5.30;2.22;;;;;;;;;;6139844;28;20054;-80
2024/02/05 13:04:26;;;;;;;5.72;1.88;;;;;;;;;;6139236;28;20062;-80
2024/02/05 13:07:28;;;;;;;7.80;2.00;;;;;;;;;;6146596;28;20055;-80
2024/02/05 13:10:30;;;;;;;9.00;2.40;;;;;;;;;;6140848;28;20047;-80
2024/02/05 13:13:32;;;;;;;8.50;2.20;;;;;;;;;;6139446;28;20057;-80
2024/02/05 13:16:34;;;;;;;6.88;2.15;;;;;;;;;;6129784;28;20125;-80
2024/02/05 13:19:37;;;;;;;6.93;2.28;;;;;;;;;;6134492;28;20057;-80
2024/02/05 13:22:39;;;;;;;4.82;2.03;;;;;;;;;;6119456;28;20129;-81
2024/02/05 13:25:40;;;;;;;8.43;2.10;;;;;;;;;;6138805;28;20074;-80
2024/02/05 13:28:47;;;;;;;6.90;1.75;;;;;;;;;;6141144;28;20062;-80
2024/02/05 13:31:49;;;;;;;4.97;1.80;;;;;;;;;;6154964;28;20074;-80
2024/02/05 13:34:50;;;;;;;9.82;1.90;;;;;;;;;;6141408;28;21415;-81
2024/02/05 13:37:52;;;;;;;6.90;2.92;;;;;;;;;;6139445;28;20254;-80
2024/02/05 13:40:54;;;;;;;6.65;2.03;;;;;;;;;;6138380;28;20121;-80
2024/02/05 13:43:56;;;;;;;7.00;2.10;;;;;;;;;;6135694;28;20047;-80
2024/02/05 13:46:57;;;;;;;6.03;2.00;;;;;;;;;;6135279;28;20058;-79
2024/02/05 13:49:59;;;;;;;6.93;2.03;;;;;;;;;;6129645;28;20098;-80
2024/02/05 13:53:02;;;;;;;7.15;2.10;;;;;;;;;;6138566;28;20047;-80
2024/02/05 13:56:06;;;;;;;8.30;2.90;;;;;;;;;;6133357;28;20043;-80
2024/02/05 13:59:08;;;;;;;8.77;1.92;;;;;;;;;;6112639;28;20949;-80
2024/02/05 14:02:09;;;;;;;7.70;1.98;;;;;;;;;;6140936;28;20143;-80
2024/02/05 14:05:12;;;;;;;7.93;2.10;;;;;;;;;;6146147;28;20106;-80
2024/02/05 14:08:14;;;;;;;8.35;2.60;;;;;;;;;;6135999;28;20054;-80
2024/02/05 14:11:16;;;;;;;5.68;1.98;;;;;;;;;;6130956;28;20429;-80
2024/02/05 14:14:18;;;;;;;6.40;2.17;;;;;;;;;;6134444;28;20572;-80
2024/02/05 14:17:19;;;;;;;6.13;1.92;;;;;;;;;;6123965;28;20451;-80
2024/02/05 14:20:23;;;;;;;6.90;2.08;;;;;;;;;;6141468;28;20044;-80
2024/02/05 14:23:25;;;;;;;9.07;2.70;;;;;;;;;;6138182;28;20050;-80
2024/02/05 14:26:27;;;;;;;4.40;2.28;;;;;;;;;;6147366;28;20047;-80
2024/02/05 14:29:28;;;;;;;5.82;2.20;;;;;;;;;;6130122;28;20043;-80
2024/02/05 14:32:30;;;;;;;6.13;2.58;;;;;;;;;;6134091;28;20061;-80
2024/02/05 14:35:32;;;;;;;8.65;2.40;;;;;;;;;;6133052;28;20051;-79
2024/02/05 14:38:33;;;;;;;8.75;2.33;;;;;;;;;;6136478;28;20051;-80
2024/02/05 14:41:35;;;;;;;5.43;2.20;;;;;;;;;;6132590;28;20540;-79
2024/02/05 14:44:37;;;;;;;7.78;2.40;;;;;;;;;;6135513;28;20054;-79
2024/02/05 14:47:39;;;;;;;7.45;2.65;;;;;;;;;;6125815;28;20121;-80
2024/02/05 14:50:40;;;;;;;5.78;2.10;;;;;;;;;;6131457;28;20429;-79
2024/02/05 14:53:42;;;;;;;9.13;2.33;;;;;;;;;;6133776;28;20074;-80
2024/02/05 14:56:44;;;;;;;6.32;2.70;;;;;;;;;;6130092;28;20437;-79
2024/02/05 14:59:46;;;;;;;11.65;2.40;;;;;;;;;;6132750;28;20047;-80
2024/02/05 15:02:48;;;;;;;7.03;2.08;;;;;;;;;;6131728;28;20054;-79
2024/02/05 15:05:49;;;;;;;9.95;2.70;;;;;;;;;;6133026;28;20055;-79
2024/02/05 15:08:52;;;;;;;11.98;2.20;;;;;;;;;;6127146;28;20054;-79
2024/02/05 15:11:53;;;;;;;9.68;2.55;;;;;;;;;;6131571;28;20051;-79
2024/02/05 15:14:55;;;;;;;8.55;2.35;;;;;;;;;;6131220;28;20043;-79
2024/02/05 15:17:57;;;;;;;6.72;2.30;;;;;;;;;;6139853;28;20051;-79
2024/02/05 15:20:58;;;;;;;6.88;2.25;;;;;;;;;;6132821;28;20047;-79
2024/02/05 15:24:00;;;;;;;4.97;2.60;;;;;;;;;;6129427;28;20051;-78
2024/02/05 15:27:02;;;;;;;4.97;1.98;;;;;;;;;;6133278;28;20059;-79
2024/02/05 15:30:05;;;;;;;9.55;2.28;;;;;;;;;;6125255;28;20182;-79
2024/02/05 15:33:07;;;;;;;11.18;2.88;;;;;;;;;;6121789;28;20051;-79
2024/02/05 15:36:15;;;;;;;7.05;1.67;;;;;;;;;;6122946;28;20101;-79
2024/02/05 15:39:16;;;;;;;8.68;2.30;;;;;;;;;;6122810;28;20248;-80
2024/02/05 15:42:18;;;;;;;12.02;3.30;;;;;;;;;;6125426;28;20436;-81
2024/02/05 15:45:21;;;;;;;7.15;2.22;;;;;;;;;;6120503;28;20051;-80
2024/02/05 15:48:23;;;;;;;9.35;2.08;;;;;;;;;;6136125;28;20051;-80
2024/02/05 15:51:25;;;;;;;13.25;2.63;;;;;;;;;;6117008;28;20905;-80
2024/02/05 15:54:26;;;;;;;8.93;2.92;;;;;;;;;;6137378;28;20054;-81
2024/02/05 15:57:29;;;;;;;9.50;2.60;;;;;;;;;;6127111;28;20075;-80
2024/02/05 16:00:31;;;;;;;7.85;2.15;;;;;;;;;;6128201;28;20493;-80
2024/02/05 16:03:34;;;;;;;8.00;2.35;;;;;;;;;;6129525;28;20182;-81
2024/02/05 16:06:35;;;;;;;7.53;2.25;;;;;;;;;;6126017;28;20051;-80
2024/02/05 16:09:38;;;;;;;6.63;1.98;;;;;;;;;;6129050;28;20043;-80
2024/02/05 16:12:39;;;;;;;11.13;2.25;;;;;;;;;;6139034;28;20592;-80
2024/02/05 16:15:41;;;;;;;5.82;2.22;;;;;;;;;;6116634;28;20438;-80
2024/02/05 16:18:43;;;;;;;7.60;2.28;;;;;;;;;;6119056;28;20066;-80
2024/02/05 16:21:46;;;;;;;7.03;2.30;;;;;;;;;;6131347;28;20035;-79
2024/02/05 16:24:48;;;;;;;6.75;2.38;;;;;;;;;;6116866;28;20572;-80
2024/02/05 16:27:50;;;;;;;7.88;2.72;;;;;;;;;;6139764;28;20430;-80
2024/02/05 16:30:52;;;;;;;8.47;2.30;;;;;;;;;;6144442;28;20039;-80
2024/02/05 16:33:54;;;;;;;6.13;2.20;;;;;;;;;;6108301;28;20051;-79
2024/02/05 16:36:56;;;;;;;7.43;2.53;;;;;;;;;;6123830;28;20127;-80
2024/02/05 16:39:58;;;;;;;6.55;2.55;;;;;;;;;;6125180;28;20055;-80
2024/02/05 16:42:59;;;;;;;12.40;2.60;;;;;;;;;;6139536;28;20093;-80
2024/02/05 16:46:01;;;;;;;8.77;2.70;;;;;;;;;;6136439;28;20055;-80
2024/02/05 16:49:04;;;;;;;9.85;3.03;;;;;;;;;;6135510;28;20051;-81
2024/02/05 16:52:06;;;;;;;5.55;2.53;;;;;;;;;;6143841;28;20082;-81
2024/02/05 16:55:08;;;;;;;6.10;2.38;;;;;;;;;;6111834;28;20534;-82
2024/02/05 16:58:11;;;;;;;8.10;2.33;;;;;;;;;;6133590;28;20054;-80
2024/02/05 17:01:14;;;;;;;8.93;2.53;;;;;;;;;;6127564;28;20503;-81
2024/02/05 17:04:15;;;;;;;7.18;2.55;;;;;;;;;;6129047;28;20606;-80
2024/02/05 17:07:18;;;;;;;9.57;2.53;;;;;;;;;;6129122;28;20062;-81
2024/02/05 17:10:19;;;;;;;6.78;2.95;;;;;;;;;;6121773;28;20530;-80
2024/02/05 17:13:24;;;;;;;9.10;2.80;;;;;;;;;;6142592;28;20055;-83
2024/02/05 17:16:27;;;;;;;11.00;2.80;;;;;;;;;;6127245;28;20047;-82
2024/02/05 17:19:38;;;;;;;9.35;2.80;;;;;;;;;;6118254;28;20055;-80
2024/02/05 17:22:40;;;;;;;9.38;2.90;;;;;;;;;;6141978;28;20095;-81
2024/02/05 17:25:42;;;;;;;8.15;2.45;;;;;;;;;;6130386;28;20180;-80
2024/02/05 17:28:44;;;;;;;10.38;2.75;;;;;;;;;;6141207;28;20067;-80
2024/02/05 17:31:46;;;;;;;8.88;3.22;;;;;;;;;;6144702;28;20050;-79
2024/02/05 17:34:48;;;;;;;8.77;3.13;;;;;;;;;;6152975;28;20142;-79
2024/02/05 17:37:49;;;;;;;8.88;2.88;;;;;;;;;;6114763;28;20066;-79
2024/02/05 17:40:51;;;;;;;23.88;8.25;;;;;;;;;;6130851;28;20047;-78
2024/02/05 17:43:53;;;;;;;11.15;2.88;;;;;;;;;;6136227;28;20071;-78
2024/02/05 17:46:54;;;;;;;14.82;3.45;;;;;;;;;;6130293;28;20521;-77
2024/02/05 17:50:00;;;;;;;8.35;3.10;;;;;;;;;;6127105;28;20047;-78
2024/02/05 17:53:02;;;;;;;9.15;3.28;;;;;;;;;;6148045;28;20151;-77
2024/02/05 17:56:04;;;;;;;12.85;3.15;;;;;;;;;;6123619;28;20043;-78
2024/02/05 17:59:06;;;;;;;10.02;2.97;;;;;;;;;;6133069;28;20047;-78
2024/02/05 18:02:09;;;;;;;23.08;7.10;;;;;;;;;;6132469;28;20054;-78
2024/02/05 18:05:11;;;;;;;6.40;2.95;;;;;;;;;;6135308;28;20051;-79
2024/02/05 18:08:13;;;;;;;6.93;3.15;;;;;;;;;;6139114;28;20054;-77
2024/02/05 18:11:15;;;;;;;11.20;3.40;;;;;;;;;;6133062;28;20408;-79